Sheldon Creek, Vermont
Current Conditions -  °F | °C
As of 10:35 AM on Saturday 25 Oct 2014 (Local Time) from KFSO Reporting Station
Clear Clear  
Wind Chill: 46°   Ceiling: Unl
Heat Index: 49°   Visibility: 10mi
Dew Point: 43°   Wind: 7mph
Humidity: 78%   Direction: 200°SSW
Pressure: 29.72"   Gusts: NA
Location:  44.8776°N, 72.9201°W
Report Text: KFSO 251435Z AUTO 20006KT 10SM CLR 10/06 A2972 RMK AO2 T00960060
Loading
Personal Weather Stations






























Interactive Weather Map
Tropical Storm Tracking
New forecast layout! Learn more

10-Day Weather Forecast

Advertisements
Track Severe Weather on mobile